Time;durP1;ratioP1;P1;durP2;ratioP2;P2;SDS_P1;SDS_P2;PMS_P1;PMS_P2;Temp;Humidity;BMP_temperature;BMP_pressure;BME280_temperature;BME280_humidity;BME280_pressure;Samples;Min_cycle;Max_cycle;Signal;HPM_P1;HPM_P2
2021/10/31 00:01:48;;;;;;;10.87;6.27;;;10.80;99.90;;;;;;6241482;22;20587;-89
2021/10/31 00:04:14;;;;;;;15.33;8.53;;;10.90;99.90;;;;;;6192082;22;20914;-90
2021/10/31 00:06:40;;;;;;;11.80;7.93;;;10.80;99.90;;;;;;6241573;22;20200;-89
2021/10/31 00:09:07;;;;;;;10.97;6.70;;;10.80;99.90;;;;;;6241269;22;20200;-88
2021/10/31 00:11:34;;;;;;;10.53;7.17;;;10.90;99.90;;;;;;6217144;22;20651;-89
2021/10/31 00:14:00;;;;;;;13.40;6.37;;;10.90;99.90;;;;;;6240655;22;20165;-90
2021/10/31 00:16:26;;;;;;;8.70;6.83;;;11.00;99.90;;;;;;6242402;22;20252;-88
2021/10/31 00:18:52;;;;;;;13.63;7.33;;;11.00;99.90;;;;;;6216550;22;20220;-90
2021/10/31 00:21:18;;;;;;;18.10;7.00;;;11.10;99.90;;;;;;6240901;22;20967;-90
2021/10/31 00:23:44;;;;;;;16.07;7.40;;;11.10;99.90;;;;;;6214840;22;20197;-90
2021/10/31 00:26:09;;;;;;;8.17;6.17;;;11.00;99.90;;;;;;6237822;22;20245;-89
2021/10/31 00:28:35;;;;;;;12.97;7.40;;;11.00;99.90;;;;;;6213810;22;20856;-89
2021/10/31 00:31:01;;;;;;;6.23;4.90;;;11.10;99.90;;;;;;6187822;22;20227;-89
2021/10/31 00:33:27;;;;;;;13.47;8.43;;;11.00;99.90;;;;;;6213363;22;20192;-89
2021/10/31 00:35:52;;;;;;;11.77;7.23;;;11.00;99.90;;;;;;6238373;22;20196;-89
2021/10/31 00:38:18;;;;;;;9.97;6.93;;;11.00;99.90;;;;;;6215385;22;20188;-91
2021/10/31 00:40:45;;;;;;;9.97;6.83;;;10.90;99.90;;;;;;6216213;22;20161;-89
2021/10/31 00:43:11;;;;;;;11.93;8.17;;;10.90;99.90;;;;;;6242023;22;20172;-90
2021/10/31 00:45:36;;;;;;;10.03;7.13;;;11.00;99.90;;;;;;6241030;22;20245;-90
2021/10/31 00:48:02;;;;;;;8.97;7.37;;;10.90;99.90;;;;;;6215762;22;20706;-89
2021/10/31 00:50:28;;;;;;;12.33;6.53;;;10.90;99.90;;;;;;6240507;22;20280;-88
2021/10/31 00:52:54;;;;;;;13.83;7.07;;;10.90;99.90;;;;;;6190641;22;20588;-87
2021/10/31 00:55:20;;;;;;;8.07;6.07;;;10.80;99.90;;;;;;6216081;22;20157;-88
2021/10/31 00:57:46;;;;;;;13.47;7.70;;;10.80;99.90;;;;;;6215753;22;20197;-88
2021/10/31 01:00:13;;;;;;;10.83;7.80;;;10.80;99.90;;;;;;6215514;22;20254;-88
2021/10/31 01:02:39;;;;;;;16.50;6.27;;;10.80;99.90;;;;;;6216604;22;20499;-89
2021/10/31 01:05:09;;;;;;;10.63;6.37;;;10.80;99.90;;;;;;6241540;22;20169;-90
2021/10/31 01:07:52;;;;;;;17.90;7.80;;;10.90;99.90;;;;;;6268222;22;20164;-87
2021/10/31 01:10:27;;;;;;;13.27;6.07;;;10.90;99.90;;;;;;6241908;22;20148;-88
2021/10/31 01:13:12;;;;;;;11.53;6.93;;;10.90;99.90;;;;;;6241543;22;20184;-88
2021/10/31 01:16:00;;;;;;;8.53;7.00;;;11.00;99.90;;;;;;6268158;22;20204;-90
2021/10/31 01:18:54;;;;;;;10.47;6.80;;;11.00;99.90;;;;;;6242149;22;20163;-90
2021/10/31 01:21:22;;;;;;;18.47;9.33;;;11.10;99.90;;;;;;6267954;22;20503;-90
2021/10/31 01:24:06;;;;;;;20.57;8.30;;;11.10;99.90;;;;;;6267806;22;20164;-90
2021/10/31 01:26:55;;;;;;;12.23;7.83;;;11.10;99.90;;;;;;6268112;22;20476;-87
2021/10/31 01:29:42;;;;;;;13.00;6.87;;;11.10;99.90;;;;;;6241841;22;20227;-89
2021/10/31 01:32:46;;;;;;;12.40;8.80;;;11.10;99.90;;;;;;6239844;22;20280;-90
2021/10/31 01:35:23;;;;;;;14.93;9.77;;;11.10;99.90;;;;;;6241549;22;20211;-91
2021/10/31 01:38:14;;;;;;;16.27;8.00;;;11.10;99.90;;;;;;6242993;22;20148;-89
2021/10/31 01:40:55;;;;;;;15.70;8.60;;;11.10;99.90;;;;;;6243270;22;20179;-91
2021/10/31 01:43:34;;;;;;;13.03;6.87;;;11.10;99.90;;;;;;6270086;22;20168;-91
2021/10/31 01:46:47;;;;;;;13.53;9.03;;;11.10;99.90;;;;;;6269874;22;20140;-89
2021/10/31 01:49:41;;;;;;;15.67;8.80;;;11.10;99.90;;;;;;6252575;22;20245;-87
2021/10/31 01:52:21;;;;;;;14.67;10.87;;;11.10;99.90;;;;;;6240007;22;20219;-88
2021/10/31 01:54:57;;;;;;;11.87;8.70;;;11.10;99.90;;;;;;6240436;22;20152;-90
2021/10/31 01:57:24;;;;;;;13.47;7.07;;;11.20;99.90;;;;;;6238824;22;20198;-89
2021/10/31 02:00:01;;;;;;;17.97;8.93;;;11.30;99.90;;;;;;6215684;22;20160;-90
2021/10/31 02:02:30;;;;;;;17.30;9.30;;;11.30;99.90;;;;;;6241274;22;20246;-87
2021/10/31 02:04:57;;;;;;;7.43;5.90;;;11.30;99.90;;;;;;6242503;22;20196;-89
2021/10/31 02:07:24;;;;;;;18.97;10.13;;;11.30;99.90;;;;;;6217571;22;20913;-88
2021/10/31 02:09:51;;;;;;;19.07;10.23;;;11.30;99.90;;;;;;6217547;22;20220;-91
2021/10/31 02:12:18;;;;;;;18.33;9.00;;;11.30;99.90;;;;;;6241811;22;20216;-90
2021/10/31 02:14:46;;;;;;;17.87;8.57;;;11.20;99.90;;;;;;6242532;22;20223;-91
2021/10/31 02:17:17;;;;;;;15.33;10.97;;;11.20;99.90;;;;;;6242474;22;20193;-89
2021/10/31 02:19:45;;;;;;;16.23;9.47;;;11.10;99.90;;;;;;6268806;22;20148;-90
2021/10/31 02:22:18;;;;;;;19.23;9.43;;;11.10;99.90;;;;;;6269419;22;20164;-87
2021/10/31 02:24:45;;;;;;;14.37;8.37;;;11.00;99.90;;;;;;6268490;22;20189;-90
2021/10/31 02:27:20;;;;;;;10.40;8.20;;;11.00;99.90;;;;;;6241994;22;20188;-88
2021/10/31 02:29:54;;;;;;;11.73;7.43;;;10.90;99.90;;;;;;6242436;22;20283;-89
2021/10/31 02:32:22;;;;;;;22.43;10.20;;;10.90;99.90;;;;;;6242101;22;20200;-88
2021/10/31 02:34:49;;;;;;;16.50;9.30;;;10.90;99.90;;;;;;6269413;22;20156;-89
2021/10/31 02:37:15;;;;;;;14.93;9.73;;;10.90;99.90;;;;;;6242983;22;20160;-90
2021/10/31 02:39:41;;;;;;;15.93;9.40;;;10.80;99.90;;;;;;6191663;22;20197;-88
2021/10/31 02:42:07;;;;;;;14.63;8.33;;;10.80;99.90;;;;;;6242065;22;20207;-90
2021/10/31 02:44:33;;;;;;;19.97;8.53;;;10.80;99.90;;;;;;6268489;22;20532;-90
2021/10/31 02:46:59;;;;;;;17.07;8.63;;;10.80;99.90;;;;;;6217007;22;20163;-90
2021/10/31 02:49:27;;;;;;;14.63;8.67;;;10.80;99.90;;;;;;6217762;22;20157;-90
2021/10/31 02:51:59;;;;;;;17.43;10.33;;;10.80;99.90;;;;;;6268731;22;20291;-91
2021/10/31 02:55:01;;;;;;;9.80;5.80;;;10.80;99.90;;;;;;6268774;22;20275;-88
2021/10/31 02:57:59;;;;;;;14.40;9.00;;;10.80;99.90;;;;;;6241753;22;20658;-90
2021/10/31 03:00:28;;;;;;;12.40;8.70;;;10.80;99.90;;;;;;6258493;22;20203;-88
2021/10/31 03:02:54;;;;;;;13.43;8.73;;;10.70;99.90;;;;;;6242405;22;20527;-90
2021/10/31 03:05:21;;;;;;;15.63;8.93;;;10.70;99.90;;;;;;6241804;22;20189;-90
2021/10/31 03:07:47;;;;;;;13.97;8.73;;;10.70;99.90;;;;;;6216661;22;20160;-90
2021/10/31 03:10:17;;;;;;;16.43;9.13;;;10.70;99.90;;;;;;6242054;22;20165;-89
2021/10/31 03:12:50;;;;;;;16.43;9.37;;;10.70;99.90;;;;;;6267775;22;20211;-87
2021/10/31 03:15:16;;;;;;;10.43;8.47;;;10.70;99.90;;;;;;6212411;23;20219;-89
2021/10/31 03:17:42;;;;;;;9.67;8.30;;;10.70;99.90;;;;;;6236425;22;20209;-90
2021/10/31 03:20:08;;;;;;;14.27;9.90;;;10.60;99.90;;;;;;6211187;22;20531;-90
2021/10/31 03:22:34;;;;;;;11.73;7.97;;;10.60;99.90;;;;;;6187249;23;20161;-90
2021/10/31 03:25:00;;;;;;;18.53;9.57;;;10.60;99.90;;;;;;6237743;22;20744;-90
2021/10/31 03:27:26;;;;;;;10.50;7.87;;;10.60;99.90;;;;;;6236346;22;20209;-89
2021/10/31 03:29:52;;;;;;;21.20;8.70;;;10.50;99.90;;;;;;6210989;23;20696;-89
2021/10/31 03:32:19;;;;;;;12.33;8.33;;;10.50;99.90;;;;;;6237463;22;20201;-89
2021/10/31 03:34:44;;;;;;;10.80;7.40;;;10.50;99.90;;;;;;6236425;22;20161;-90
2021/10/31 03:37:10;;;;;;;17.30;7.33;;;10.50;99.90;;;;;;6236389;23;20162;-91
2021/10/31 03:39:36;;;;;;;14.77;8.60;;;10.50;99.90;;;;;;6236394;22;20197;-88
2021/10/31 03:42:03;;;;;;;14.70;8.50;;;10.50;99.90;;;;;;6236057;22;20201;-89
2021/10/31 03:44:31;;;;;;;11.93;9.27;;;10.50;99.90;;;;;;6237617;22;20195;-88
2021/10/31 03:46:57;;;;;;;9.80;5.73;;;10.50;99.90;;;;;;6212301;22;20204;-88
2021/10/31 03:49:23;;;;;;;13.00;8.47;;;10.50;99.90;;;;;;6186791;23;20597;-91
2021/10/31 03:51:48;;;;;;;10.23;8.73;;;10.50;99.90;;;;;;6236695;22;20209;-89
2021/10/31 03:54:14;;;;;;;14.33;8.50;;;10.50;99.90;;;;;;6211137;23;20870;-89
2021/10/31 03:56:40;;;;;;;13.17;8.10;;;10.50;99.90;;;;;;6235855;22;20189;-89
2021/10/31 03:59:05;;;;;;;11.80;7.70;;;10.50;99.90;;;;;;6185674;23;20189;-89
2021/10/31 04:01:32;;;;;;;9.97;7.37;;;10.50;99.90;;;;;;6212219;23;20237;-90
2021/10/31 04:03:59;;;;;;;11.03;7.33;;;10.40;99.90;;;;;;6237419;22;20201;-90
2021/10/31 04:06:26;;;;;;;11.13;7.67;;;10.30;99.90;;;;;;6210511;23;20198;-90
2021/10/31 04:08:51;;;;;;;10.70;7.77;;;10.30;99.90;;;;;;6236259;22;20632;-90
2021/10/31 04:11:17;;;;;;;10.40;7.93;;;10.30;99.90;;;;;;6211024;23;20201;-90
2021/10/31 04:13:43;;;;;;;15.23;7.87;;;10.20;99.90;;;;;;6211345;22;20530;-89
2021/10/31 04:16:10;;;;;;;12.20;8.00;;;10.20;99.90;;;;;;6232832;23;20178;-90
2021/10/31 04:18:36;;;;;;;11.90;7.60;;;10.20;99.90;;;;;;6232853;22;20209;-89
2021/10/31 04:21:01;;;;;;;13.03;6.27;;;10.00;99.90;;;;;;6208292;23;20259;-91
2021/10/31 04:23:28;;;;;;;10.30;8.03;;;9.90;99.90;;;;;;6210144;23;20200;-90
2021/10/31 04:25:54;;;;;;;9.57;5.93;;;9.90;99.90;;;;;;6210591;22;20164;-89
2021/10/31 04:28:20;;;;;;;9.40;6.63;;;9.90;99.90;;;;;;6211198;23;20161;-89
2021/10/31 04:30:46;;;;;;;16.13;7.00;;;9.90;99.90;;;;;;6185673;23;20213;-88
2021/10/31 04:33:12;;;;;;;12.40;6.23;;;9.90;99.90;;;;;;6210202;23;20288;-91
2021/10/31 04:35:38;;;;;;;15.50;9.07;;;10.00;99.90;;;;;;6235609;22;20715;-90
2021/10/31 04:38:18;;;;;;;11.30;5.57;;;10.00;99.90;;;;;;6237483;22;20200;-88
2021/10/31 04:40:44;;;;;;;8.53;7.33;;;10.00;99.90;;;;;;6214228;22;20220;-88
2021/10/31 04:43:11;;;;;;;11.67;6.20;;;10.00;99.90;;;;;;6236790;23;20157;-89
2021/10/31 04:45:45;;;;;;;12.47;6.13;;;10.00;99.90;;;;;;6186266;23;20204;-89
2021/10/31 04:48:12;;;;;;;20.40;6.37;;;10.00;99.90;;;;;;6235745;22;20354;-89
2021/10/31 04:50:39;;;;;;;7.27;5.33;;;10.00;99.90;;;;;;6236017;22;20213;-90
2021/10/31 04:53:07;;;;;;;8.50;5.33;;;10.00;99.90;;;;;;6235997;22;20194;-89
2021/10/31 04:55:34;;;;;;;9.43;6.13;;;9.90;99.90;;;;;;6210935;23;20177;-89
2021/10/31 04:58:00;;;;;;;28.80;4.90;;;9.80;99.90;;;;;;6236604;22;20201;-90
2021/10/31 05:00:26;;;;;;;9.43;6.20;;;9.80;99.90;;;;;;6236849;22;20197;-89
2021/10/31 05:02:52;;;;;;;9.27;6.40;;;9.80;99.90;;;;;;6236032;22;21015;-89
2021/10/31 05:05:21;;;;;;;18.77;6.63;;;9.70;99.90;;;;;;6210498;23;20205;-90
2021/10/31 05:07:48;;;;;;;7.63;4.73;;;9.60;99.90;;;;;;6235651;22;20163;-90
2021/10/31 05:10:16;;;;;;;10.67;5.97;;;9.60;99.90;;;;;;6233907;23;20597;-90
2021/10/31 05:12:42;;;;;;;9.37;6.07;;;9.50;99.90;;;;;;6232107;22;20801;-90
2021/10/31 05:15:08;;;;;;;11.20;6.03;;;9.50;99.90;;;;;;6232666;22;20271;-89
2021/10/31 05:17:34;;;;;;;9.57;6.20;;;9.40;99.90;;;;;;6182097;23;20205;-90
2021/10/31 05:20:01;;;;;;;7.07;4.83;;;9.40;99.90;;;;;;6233173;22;20212;-89
2021/10/31 05:22:27;;;;;;;13.53;7.67;;;9.30;99.90;;;;;;6236656;23;20200;-89
2021/10/31 05:24:52;;;;;;;7.43;5.50;;;9.30;99.90;;;;;;6235394;22;20253;-90
2021/10/31 05:27:18;;;;;;;12.17;6.60;;;9.30;99.90;;;;;;6185554;23;20775;-90
2021/10/31 05:29:44;;;;;;;5.87;4.67;;;9.20;99.90;;;;;;6209840;23;20193;-88
2021/10/31 05:32:10;;;;;;;7.60;6.23;;;9.10;99.90;;;;;;6209860;23;20267;-88
2021/10/31 05:34:36;;;;;;;8.10;7.27;;;9.20;99.90;;;;;;6210729;23;20324;-90
2021/10/31 05:37:02;;;;;;;7.27;5.63;;;9.20;99.90;;;;;;6210960;23;20216;-88
2021/10/31 05:39:30;;;;;;;9.73;5.63;;;9.30;99.90;;;;;;6235815;22;20220;-89
2021/10/31 05:41:55;;;;;;;10.77;6.17;;;9.30;99.90;;;;;;6210233;23;20193;-89
2021/10/31 05:44:21;;;;;;;12.37;6.07;;;9.30;99.90;;;;;;6235912;22;20193;-88
2021/10/31 05:46:47;;;;;;;11.53;7.43;;;9.40;99.90;;;;;;6185311;22;20167;-88
2021/10/31 05:49:13;;;;;;;14.57;8.13;;;9.40;99.90;;;;;;6185511;23;20157;-89
2021/10/31 05:51:39;;;;;;;15.57;6.63;;;9.40;99.90;;;;;;6236309;22;20213;-87
2021/10/31 05:54:04;;;;;;;16.40;9.03;;;9.40;99.90;;;;;;6185290;23;20231;-88
2021/10/31 05:56:30;;;;;;;14.03;8.73;;;9.50;99.90;;;;;;6236737;22;20189;-89
2021/10/31 05:58:56;;;;;;;15.13;8.60;;;9.50;99.90;;;;;;6235755;22;20161;-89
2021/10/31 06:01:22;;;;;;;11.17;9.47;;;9.50;99.90;;;;;;6236059;23;20169;-89
2021/10/31 06:03:47;;;;;;;17.40;9.57;;;9.60;99.90;;;;;;6185590;23;20247;-88
2021/10/31 06:06:13;;;;;;;10.17;7.93;;;9.70;99.90;;;;;;6185086;23;20200;-89
2021/10/31 06:08:39;;;;;;;16.27;9.33;;;9.80;99.90;;;;;;6236598;22;20205;-88
2021/10/31 06:11:05;;;;;;;15.73;10.07;;;9.90;99.90;;;;;;6185591;22;20216;-89
2021/10/31 06:13:31;;;;;;;15.77;11.20;;;9.90;99.90;;;;;;6236547;22;20170;-89
2021/10/31 06:15:57;;;;;;;15.30;9.33;;;10.00;99.90;;;;;;6185168;23;20206;-89
2021/10/31 06:18:23;;;;;;;19.63;10.40;;;10.10;99.90;;;;;;6185338;23;20232;-89
2021/10/31 06:20:48;;;;;;;29.27;11.83;;;10.10;99.90;;;;;;6236767;22;20596;-89
2021/10/31 06:23:14;;;;;;;13.77;9.47;;;10.20;99.90;;;;;;6210858;23;20532;-90
2021/10/31 06:25:41;;;;;;;24.27;11.57;;;10.20;99.90;;;;;;6188242;23;20168;-89
2021/10/31 06:28:08;;;;;;;18.43;10.30;;;10.20;99.90;;;;;;6237438;23;20182;-89
2021/10/31 06:30:34;;;;;;;16.40;11.47;;;10.20;99.90;;;;;;6237617;22;20222;-89
2021/10/31 06:33:00;;;;;;;12.87;10.10;;;10.10;99.90;;;;;;6237675;22;20280;-89
2021/10/31 06:35:26;;;;;;;18.10;11.17;;;10.10;99.90;;;;;;6211388;23;20962;-88
2021/10/31 06:37:51;;;;;;;12.70;9.63;;;10.10;99.90;;;;;;6237492;22;20153;-90
2021/10/31 06:40:17;;;;;;;15.67;9.97;;;10.10;99.90;;;;;;6237865;23;20161;-88
2021/10/31 06:42:43;;;;;;;15.07;10.10;;;10.00;99.90;;;;;;6211922;23;20268;-88
2021/10/31 06:45:10;;;;;;;21.90;8.63;;;10.00;99.90;;;;;;6237250;22;20207;-89
2021/10/31 06:47:35;;;;;;;16.87;10.43;;;10.00;99.90;;;;;;6211783;23;20221;-87
2021/10/31 06:50:02;;;;;;;16.33;10.10;;;10.10;99.90;;;;;;6237495;22;20275;-89
2021/10/31 06:52:28;;;;;;;24.20;10.87;;;10.10;99.90;;;;;;6212398;23;20196;-89
2021/10/31 06:54:54;;;;;;;13.67;9.13;;;10.10;99.90;;;;;;6237529;22;20193;-86
2021/10/31 06:57:20;;;;;;;16.73;8.17;;;10.10;99.90;;;;;;6213054;23;20224;-88
2021/10/31 06:59:46;;;;;;;14.17;7.73;;;10.10;99.90;;;;;;6239269;22;20205;-88
2021/10/31 07:02:11;;;;;;;14.03;8.07;;;10.10;99.90;;;;;;6214804;22;20945;-88
2021/10/31 07:04:37;;;;;;;16.17;8.33;;;10.00;99.90;;;;;;6188875;23;20801;-90
2021/10/31 07:07:03;;;;;;;13.83;9.43;;;10.10;99.90;;;;;;6187436;23;20644;-90
2021/10/31 07:09:29;;;;;;;10.63;8.50;;;10.20;99.90;;;;;;6197793;23;20210;-89
2021/10/31 07:11:55;;;;;;;16.10;9.30;;;10.20;99.90;;;;;;6258746;22;20209;-90
2021/10/31 07:14:21;;;;;;;10.07;7.13;;;10.30;99.90;;;;;;6208809;23;20219;-91
2021/10/31 07:16:47;;;;;;;13.17;8.30;;;10.30;99.90;;;;;;6237744;22;20157;-90
2021/10/31 07:19:13;;;;;;;12.43;8.57;;;10.40;99.90;;;;;;6235248;23;20161;-90
2021/10/31 07:21:39;;;;;;;19.87;10.40;;;10.50;99.90;;;;;;6209615;23;20201;-91
2021/10/31 07:24:05;;;;;;;14.30;7.03;;;10.40;99.90;;;;;;6236187;22;20276;-90
2021/10/31 07:26:32;;;;;;;14.73;8.37;;;10.50;99.90;;;;;;6209932;23;20189;-92
2021/10/31 07:28:58;;;;;;;12.53;6.67;;;10.50;99.90;;;;;;6209059;22;20191;-85
2021/10/31 07:31:26;;;;;;;15.80;8.57;;;10.50;99.90;;;;;;6209119;23;20239;-86
2021/10/31 07:33:52;;;;;;;20.27;7.83;;;10.50;99.90;;;;;;6233602;22;20205;-86
2021/10/31 07:36:18;;;;;;;10.07;8.63;;;10.50;99.90;;;;;;6185304;23;20193;-85
2021/10/31 07:38:44;;;;;;;10.37;6.47;;;10.60;99.90;;;;;;6186492;23;20197;-88
2021/10/31 07:41:11;;;;;;;15.60;10.30;;;10.50;99.90;;;;;;6186911;23;20193;-89
2021/10/31 07:43:38;;;;;;;12.53;6.13;;;10.60;99.90;;;;;;6212166;23;20196;-89
2021/10/31 07:46:03;;;;;;;14.00;7.47;;;10.60;99.90;;;;;;6238102;22;20209;-89
2021/10/31 07:48:29;;;;;;;10.23;6.53;;;10.70;99.90;;;;;;6236471;22;20193;-90
2021/10/31 07:50:55;;;;;;;8.47;5.87;;;10.70;99.90;;;;;;6236189;22;20209;-88
2021/10/31 07:53:21;;;;;;;14.33;7.60;;;10.70;99.90;;;;;;6211856;23;20181;-90
2021/10/31 07:55:52;;;;;;;11.10;6.13;;;10.70;99.90;;;;;;6211565;22;20300;-89
2021/10/31 07:58:24;;;;;;;18.03;9.23;;;10.80;99.90;;;;;;6211374;23;20620;-91
2021/10/31 08:00:51;;;;;;;9.93;7.53;;;10.80;99.90;;;;;;6210144;23;20203;-91
2021/10/31 08:03:19;;;;;;;13.70;8.60;;;10.80;99.90;;;;;;6208798;23;20300;-91
2021/10/31 08:05:46;;;;;;;14.23;9.13;;;10.80;99.90;;;;;;6234816;22;20211;-90
2021/10/31 08:08:12;;;;;;;14.17;5.37;;;10.80;99.90;;;;;;6209058;23;20189;-86
2021/10/31 08:10:38;;;;;;;12.43;7.37;;;10.80;99.90;;;;;;6235631;23;20796;-90
2021/10/31 08:13:04;;;;;;;10.13;6.73;;;10.90;99.90;;;;;;6211430;23;20292;-92
2021/10/31 08:15:30;;;;;;;6.60;5.50;;;10.90;99.90;;;;;;6211415;23;20219;-91
2021/10/31 08:17:56;;;;;;;10.30;5.17;;;10.90;99.90;;;;;;6186784;23;20209;-92
2021/10/31 08:20:23;;;;;;;16.23;7.80;;;10.80;99.90;;;;;;6210968;23;20196;-92
2021/10/31 08:22:49;;;;;;;10.17;4.53;;;10.90;99.90;;;;;;6236333;22;20166;-90
2021/10/31 08:25:15;;;;;;;10.03;6.77;;;11.00;99.90;;;;;;6236931;23;20937;-90
2021/10/31 08:27:41;;;;;;;11.33;4.53;;;11.00;99.90;;;;;;6186373;23;20563;-91
2021/10/31 08:30:07;;;;;;;11.90;5.10;;;11.10;99.90;;;;;;6211138;23;20276;-87
2021/10/31 08:32:42;;;;;;;13.40;7.07;;;11.10;99.90;;;;;;6233304;22;20235;-87
2021/10/31 08:35:08;;;;;;;11.73;7.10;;;11.10;99.90;;;;;;6232970;22;20188;-87
2021/10/31 08:37:33;;;;;;;8.83;6.37;;;11.10;99.90;;;;;;6205630;23;20593;-86
2021/10/31 08:39:59;;;;;;;10.60;6.83;;;11.20;99.90;;;;;;6206108;23;20326;-86
2021/10/31 08:42:25;;;;;;;11.63;7.40;;;11.20;99.90;;;;;;6231567;22;20193;-85
2021/10/31 08:44:51;;;;;;;8.57;5.23;;;11.20;99.90;;;;;;6234695;22;20204;-85
2021/10/31 08:47:17;;;;;;;6.57;5.70;;;11.20;99.90;;;;;;6209131;23;20553;-84
2021/10/31 08:49:43;;;;;;;7.67;5.20;;;11.20;99.90;;;;;;6234520;22;20188;-85
2021/10/31 08:52:08;;;;;;;10.60;7.33;;;11.20;99.90;;;;;;6234805;23;20633;-86
2021/10/31 08:54:38;;;;;;;7.60;5.10;;;11.20;99.90;;;;;;6208771;23;20201;-84
2021/10/31 08:57:06;;;;;;;9.73;5.73;;;11.20;99.90;;;;;;6208911;23;20201;-89
2021/10/31 08:59:33;;;;;;;10.50;7.17;;;11.30;99.90;;;;;;6183883;23;20690;-90
2021/10/31 09:01:58;;;;;;;21.47;8.03;;;11.30;99.90;;;;;;6234138;22;20165;-90
2021/10/31 09:04:25;;;;;;;8.67;4.67;;;11.30;99.90;;;;;;6235457;23;20157;-85
2021/10/31 09:06:51;;;;;;;10.80;5.27;;;11.30;99.90;;;;;;6235981;22;20211;-86
2021/10/31 09:09:19;;;;;;;5.43;4.90;;;11.30;99.90;;;;;;6209716;23;20208;-85
2021/10/31 09:11:46;;;;;;;11.37;6.70;;;11.40;99.90;;;;;;6210441;23;20236;-86
2021/10/31 09:14:13;;;;;;;6.33;5.30;;;11.50;99.90;;;;;;6210065;23;20213;-87
2021/10/31 09:16:39;;;;;;;16.90;6.53;;;11.50;99.90;;;;;;6211576;23;20264;-87
2021/10/31 09:19:04;;;;;;;9.23;5.43;;;11.50;99.90;;;;;;6236686;22;20243;-86
2021/10/31 09:21:30;;;;;;;7.73;6.17;;;11.50;99.90;;;;;;6210807;23;20278;-87
2021/10/31 09:23:56;;;;;;;9.40;5.37;;;11.60;99.90;;;;;;6186637;23;20274;-86
2021/10/31 09:26:22;;;;;;;7.37;5.23;;;11.60;99.90;;;;;;6209904;23;20957;-85
2021/10/31 09:28:48;;;;;;;9.27;6.07;;;11.70;99.90;;;;;;6210026;22;20585;-86
2021/10/31 09:31:15;;;;;;;9.83;5.53;;;11.80;99.90;;;;;;6234923;23;20548;-86
2021/10/31 09:33:41;;;;;;;9.93;5.17;;;11.80;99.90;;;;;;6235318;22;20197;-85
2021/10/31 09:36:07;;;;;;;8.27;5.00;;;11.90;99.90;;;;;;6201757;23;20199;-86
2021/10/31 09:38:34;;;;;;;5.70;4.50;;;11.90;99.90;;;;;;6210449;23;20264;-85
2021/10/31 09:41:00;;;;;;;5.50;4.77;;;12.00;99.90;;;;;;6234812;22;20158;-85
2021/10/31 09:43:29;;;;;;;7.27;5.03;;;12.10;99.90;;;;;;6210053;23;20246;-88
2021/10/31 09:45:59;;;;;;;5.53;3.70;;;12.20;99.90;;;;;;6235852;22;20212;-89
2021/10/31 09:48:31;;;;;;;9.43;6.67;;;12.20;99.90;;;;;;6236090;22;20272;-86
2021/10/31 09:50:56;;;;;;;7.87;5.40;;;12.20;99.90;;;;;;6236377;22;20216;-89
2021/10/31 09:53:22;;;;;;;8.27;4.77;;;12.40;99.90;;;;;;6236372;22;20193;-90
2021/10/31 09:55:49;;;;;;;12.90;4.47;;;12.50;99.90;;;;;;6184037;22;20323;-88
2021/10/31 09:58:31;;;;;;;7.50;5.00;;;12.50;99.90;;;;;;6236873;22;20150;-90
2021/10/31 10:00:57;;;;;;;9.33;4.67;;;12.60;99.90;;;;;;6238117;22;20659;-88
2021/10/31 10:06:12;;;;;;;3.23;2.23;;;12.90;99.90;;;;;;6237868;22;20197;-89
2021/10/31 10:08:38;;;;;;;6.17;3.97;;;12.90;99.90;;;;;;6235452;22;20676;-87
2021/10/31 10:11:18;;;;;;;6.37;4.20;;;12.90;99.90;;;;;;6235565;22;20636;-85
2021/10/31 10:13:44;;;;;;;8.23;5.80;;;12.90;99.90;;;;;;6236289;22;20228;-88
2021/10/31 10:16:23;;;;;;;7.90;4.77;;;13.00;99.90;;;;;;6242249;22;20282;-88
2021/10/31 10:18:49;;;;;;;7.53;4.70;;;13.10;99.90;;;;;;6241593;22;20311;-90
2021/10/31 10:21:30;;;;;;;8.87;6.30;;;13.10;99.90;;;;;;6216260;22;20193;-89
2021/10/31 10:23:57;;;;;;;6.30;3.57;;;13.20;99.90;;;;;;6216435;22;20513;-87
2021/10/31 10:26:43;;;;;;;6.87;5.03;;;13.30;99.90;;;;;;6267822;22;20200;-89
2021/10/31 10:29:17;;;;;;;7.80;3.90;;;13.30;99.90;;;;;;6240737;22;20192;-87
2021/10/31 10:31:56;;;;;;;7.73;3.53;;;13.30;99.90;;;;;;6239861;22;20191;-87
2021/10/31 10:34:34;;;;;;;4.57;3.70;;;13.40;99.90;;;;;;6241653;22;20243;-89
2021/10/31 10:37:09;;;;;;;8.30;4.87;;;13.40;99.90;;;;;;6240715;22;20226;-86
2021/10/31 10:39:36;;;;;;;4.50;3.57;;;13.50;99.90;;;;;;6241158;22;20253;-87
2021/10/31 10:42:03;;;;;;;4.37;3.10;;;13.50;99.90;;;;;;6215395;22;20216;-85
2021/10/31 10:44:37;;;;;;;5.50;3.03;;;13.50;99.90;;;;;;6240064;22;20525;-87
2021/10/31 10:47:08;;;;;;;5.40;3.63;;;13.40;99.90;;;;;;6240766;22;20188;-86
2021/10/31 10:49:39;;;;;;;6.27;3.80;;;13.40;99.90;;;;;;6268294;22;20142;-87
2021/10/31 10:52:19;;;;;;;4.63;3.57;;;13.30;99.90;;;;;;6266667;22;20208;-85
2021/10/31 10:54:48;;;;;;;4.67;2.80;;;13.30;99.90;;;;;;6239635;22;20283;-85
2021/10/31 10:57:14;;;;;;;5.57;3.50;;;13.30;99.90;;;;;;6266573;22;20816;-84
2021/10/31 10:59:41;;;;;;;5.30;2.93;;;13.30;99.90;;;;;;6214083;22;20209;-84
2021/10/31 11:02:18;;;;;;;7.00;3.37;;;13.30;99.90;;;;;;6239170;22;20931;-85
2021/10/31 11:04:49;;;;;;;4.07;3.03;;;13.40;99.90;;;;;;6237607;22;20251;-87
2021/10/31 11:07:16;;;;;;;5.17;2.83;;;13.50;99.90;;;;;;6239340;22;20145;-86
2021/10/31 11:09:47;;;;;;;3.43;3.13;;;13.50;99.90;;;;;;6214654;22;20635;-87
2021/10/31 11:12:29;;;;;;;2.33;2.07;;;13.50;99.90;;;;;;6240133;22;20216;-87
2021/10/31 11:15:05;;;;;;;6.73;3.67;;;13.50;99.90;;;;;;6238780;22;20204;-87
2021/10/31 11:17:31;;;;;;;3.73;2.57;;;13.60;99.90;;;;;;6266798;22;20210;-86
2021/10/31 11:19:57;;;;;;;4.53;2.87;;;13.50;99.90;;;;;;6241118;22;20164;-87
2021/10/31 11:22:25;;;;;;;4.70;2.80;;;13.60;99.90;;;;;;6216251;22;20165;-87
2021/10/31 11:24:52;;;;;;;4.93;3.90;;;13.60;99.90;;;;;;6241009;22;20200;-87
2021/10/31 11:27:24;;;;;;;4.70;4.23;;;13.60;99.90;;;;;;6267677;22;20258;-86
2021/10/31 11:29:53;;;;;;;4.93;2.97;;;13.60;99.90;;;;;;6267795;22;20196;-85
2021/10/31 11:32:20;;;;;;;4.40;2.73;;;13.60;99.90;;;;;;6267496;22;20212;-87
2021/10/31 11:34:48;;;;;;;4.20;2.57;;;13.60;99.90;;;;;;6214989;22;20189;-87
2021/10/31 11:37:17;;;;;;;3.80;2.57;;;13.60;99.90;;;;;;6241551;22;20188;-88
2021/10/31 11:39:45;;;;;;;4.67;3.23;;;13.60;99.90;;;;;;6240586;22;20192;-86
2021/10/31 11:42:13;;;;;;;5.83;3.03;;;13.60;99.90;;;;;;6217208;22;20201;-87
2021/10/31 11:45:08;;;;;;;2.33;2.13;;;13.60;99.90;;;;;;6243295;22;20307;-86
2021/10/31 11:47:39;;;;;;;3.17;2.80;;;13.60;99.90;;;;;;6244984;22;20245;-86
2021/10/31 11:50:14;;;;;;;3.37;3.07;;;13.60;99.90;;;;;;6218560;22;20193;-87
2021/10/31 11:52:54;;;;;;;5.13;2.93;;;13.60;99.90;;;;;;6242648;22;20191;-89
2021/10/31 11:55:28;;;;;;;4.50;3.63;;;13.60;99.90;;;;;;6268713;22;20185;-89
2021/10/31 11:58:20;;;;;;;4.20;2.90;;;13.60;99.90;;;;;;6271052;22;20200;-88
2021/10/31 12:00:56;;;;;;;1.87;1.60;;;13.60;99.90;;;;;;6270392;22;20201;-86
2021/10/31 12:04:02;;;;;;;2.67;2.00;;;13.50;99.90;;;;;;6276754;22;20204;-85
2021/10/31 12:06:28;;;;;;;2.87;2.43;;;13.60;99.90;;;;;;6109067;23;20545;-85
2021/10/31 12:08:57;;;;;;;2.50;1.83;;;13.60;99.90;;;;;;6087783;23;20636;-85
2021/10/31 12:11:32;;;;;;;5.33;3.50;;;13.60;99.90;;;;;;6163855;22;20200;-85
2021/10/31 12:14:12;;;;;;;4.23;2.43;;;13.60;99.90;;;;;;6265288;22;20201;-86
2021/10/31 12:16:55;;;;;;;4.03;2.47;;;13.60;99.90;;;;;;6266110;22;20156;-86
2021/10/31 12:19:37;;;;;;;4.00;2.90;;;13.60;99.90;;;;;;6239070;22;20544;-84
2021/10/31 12:22:11;;;;;;;1.50;1.33;;;13.60;99.90;;;;;;6241684;22;20203;-86
2021/10/31 12:24:46;;;;;;;3.83;2.40;;;13.60;99.90;;;;;;6238482;22;20200;-86
2021/10/31 12:27:22;;;;;;;3.23;2.47;;;13.50;99.90;;;;;;6266222;22;20552;-87
2021/10/31 12:30:20;;;;;;;5.27;1.73;;;13.50;99.90;;;;;;6239432;22;20192;-86
2021/10/31 12:32:46;;;;;;;8.23;3.50;;;13.50;99.90;;;;;;6265701;22;20218;-87
2021/10/31 12:35:43;;;;;;;3.00;2.63;;;13.40;99.90;;;;;;6266524;22;20263;-86
2021/10/31 12:38:24;;;;;;;5.60;3.00;;;13.40;99.90;;;;;;6238123;22;20194;-85
2021/10/31 12:41:05;;;;;;;3.57;2.00;;;13.40;99.90;;;;;;6238740;22;20156;-84
2021/10/31 12:43:46;;;;;;;3.67;2.13;;;13.40;99.90;;;;;;6239711;22;20148;-86
2021/10/31 12:46:32;;;;;;;6.30;2.37;;;13.40;99.90;;;;;;6266141;22;20204;-86
2021/10/31 12:49:01;;;;;;;1.53;1.43;;;13.40;99.90;;;;;;6239125;22;20215;-84
2021/10/31 12:52:03;;;;;;;2.83;2.63;;;13.40;99.90;;;;;;6258782;22;20201;-86
2021/10/31 12:54:36;;;;;;;1.93;1.77;;;13.40;99.90;;;;;;6266806;22;20215;-86
2021/10/31 12:57:12;;;;;;;3.63;2.30;;;13.40;99.90;;;;;;6240695;22;20207;-87